This is the latest recevied weather packets stored in our database for station/object SQ8AQL-16. If no packets are shown the sender has not sent any weather packets the latest 10 day(s).
| Time | Temp. | Humidity | Pressure | Rain* | Wind** | Luminosity | Snow |
|---|---|---|---|---|---|---|---|
| 1777515038 | -0.56° C | 73% | 1031.8 hPa | - | - | - | - |
| 1777514138 | -0.56° C | 74% | 1031.6 hPa | - | - | - | - |
| 1777513237 | 0° C | 72% | 1031.6 hPa | - | - | - | - |
| 1777512336 | 0° C | 72% | 1031.5 hPa | - | - | - | - |
| 1777511435 | 0° C | 71% | 1031.4 hPa | - | - | - | - |
| 1777510534 | 0° C | 71% | 1031.5 hPa | - | - | - | - |
| 1777509633 | 0° C | 71% | 1031.5 hPa | - | - | - | - |
| 1777508732 | 0° C | 70% | 1031.5 hPa | - | - | - | - |
| 1777507831 | 0.56° C | 68% | 1031.4 hPa | - | - | - | - |
| 1777506930 | 0.56° C | 68% | 1031.5 hPa | - | - | - | - |
| 1777506029 | 1.11° C | 64% | 1031.5 hPa | - | - | - | - |
| 1777505128 | 1.67° C | 62% | 1031.4 hPa | - | - | - | - |
| 1777504227 | 1.67° C | 62% | 1031.4 hPa | - | - | - | - |
| 1777503326 | 2.78° C | 59% | 1031.4 hPa | - | - | - | - |
| 1777502425 | 2.78° C | 59% | 1031.3 hPa | - | - | - | - |
| 1777501524 | 2.78° C | 58% | 1031.3 hPa | - | - | - | - |
| 1777500624 | 2.78° C | 58% | 1031.2 hPa | - | - | - | - |
| 1777499723 | 2.78° C | 58% | 1031.2 hPa | - | - | - | - |
| 1777497917 | 3.33° C | 55% | 1031 hPa | - | - | - | - |
| 1777497016 | 3.89° C | 54% | 1030.9 hPa | - | - | - | - |
| 1777496115 | 3.89° C | 54% | 1030.8 hPa | - | - | - | - |
| 1777495214 | 4.44° C | 51% | 1030.8 hPa | - | - | - | - |
| 1777493408 | 4.44° C | 51% | 1030.5 hPa | - | - | - | - |
| 1777492507 | 4.44° C | 50% | 1030.4 hPa | - | - | - | - |
| 1777491606 | 6.11° C | 43% | 1030.3 hPa | - | - | - | - |
* Rain since midnight (hover to see other rain measurements)
** Current wind speed in m/s (hover to see current wind gust speed)